Bogota, Colombia
Current Conditions -  °F | °C
As of 9:00 AM on Wednesday 22 Oct 2014 (Local Time) from SKBO Reporting Station
Scattered Clouds Scattered Clouds  
Wind Chill: 63°   Ceiling: Unl
Heat Index: 63°   Visibility: 6mi
Dew Point: 48°   Wind: 3mph
Humidity: 59%   Direction: 120°ESE
Pressure: 30.38"   Gusts: NA
Location:  4.63°N, 74.09°W
Report Text: SKBO 221400Z 12003KT 9999 SCT020 SCT200 17/09 A3038
Loading
Personal Weather Stations






























Interactive Weather Map New forecast layout! Learn more

10-Day Weather Forecast

Advertisements
Track Severe Weather on mobile